createdAt,value
2019-05-06T00:02:24.458Z,11.50
2019-05-06T00:04:54.061Z,11.50
2019-05-06T00:07:21.242Z,11.50
2019-05-06T00:09:48.920Z,11.50
2019-05-06T00:12:16.592Z,11.50
2019-05-06T00:14:44.284Z,11.40
2019-05-06T00:17:11.882Z,11.40
2019-05-06T00:19:39.479Z,11.40
2019-05-06T00:22:07.105Z,11.40
2019-05-06T00:24:36.618Z,11.40
2019-05-06T00:27:06.208Z,11.40
2019-05-06T00:29:34.930Z,11.40
2019-05-06T00:32:04.430Z,11.40
2019-05-06T00:34:34.070Z,11.40
2019-05-06T00:37:03.808Z,11.30
2019-05-06T00:39:33.695Z,11.40
2019-05-06T00:42:03.910Z,11.40
2019-05-06T00:44:31.682Z,11.40
2019-05-06T00:46:59.362Z,11.40
2019-05-06T00:49:27.045Z,11.30
2019-05-06T00:51:55.104Z,11.30
2019-05-06T00:54:24.893Z,11.30
2019-05-06T00:56:54.106Z,11.20
2019-05-06T00:59:23.878Z,11.20
2019-05-06T01:01:51.315Z,11.20
2019-05-06T01:04:19.177Z,11.20
2019-05-06T01:06:46.871Z,11.20
2019-05-06T01:09:16.423Z,11.20
2019-05-06T01:11:45.466Z,11.20
2019-05-06T01:14:30.071Z,11.20
2019-05-06T01:16:58.061Z,11.20
2019-05-06T01:19:25.730Z,11.20
2019-05-06T01:21:54.050Z,11.20
2019-05-06T01:24:23.692Z,11.10
2019-05-06T01:26:51.131Z,11.10
2019-05-06T01:29:18.835Z,11.10
2019-05-06T01:31:46.762Z,11.10
2019-05-06T01:34:14.350Z,11.10
2019-05-06T01:36:43.759Z,11.10
2019-05-06T01:39:13.857Z,11.10
2019-05-06T01:41:44.704Z,11.10
2019-05-06T01:44:13.678Z,11.10
2019-05-06T01:46:41.763Z,11.00
2019-05-06T01:49:09.632Z,11.10
2019-05-06T01:51:37.328Z,11.10
2019-05-06T01:54:04.928Z,11.10
2019-05-06T01:56:33.682Z,11.10
2019-05-06T01:59:01.627Z,11.10
2019-05-06T02:01:29.492Z,11.10
2019-05-06T02:03:57.157Z,11.10
2019-05-06T02:06:25.055Z,11.10
2019-05-06T02:08:53.983Z,11.10
2019-05-06T02:11:23.989Z,11.00
2019-05-06T02:13:51.141Z,11.00
2019-05-06T02:16:18.738Z,11.00
2019-05-06T02:18:46.403Z,11.00
2019-05-06T02:21:24.489Z,11.00
2019-05-06T02:23:55.463Z,10.90
2019-05-06T02:26:23.898Z,11.00
2019-05-06T02:28:54.460Z,11.00
2019-05-06T02:31:38.953Z,10.90
2019-05-06T02:34:25.355Z,10.90
2019-05-06T02:36:57.493Z,10.90
2019-05-06T02:39:25.177Z,10.90
2019-05-06T02:41:54.941Z,10.90
2019-05-06T02:44:23.827Z,10.90
2019-05-06T02:46:53.418Z,10.80
2019-05-06T02:49:25.772Z,10.80
2019-05-06T02:51:53.653Z,10.80
2019-05-06T02:54:23.489Z,10.80
2019-05-06T02:56:53.160Z,10.80
2019-05-06T02:59:20.111Z,10.80
2019-05-06T03:01:47.785Z,10.80
2019-05-06T03:04:15.476Z,10.70
2019-05-06T03:09:18.971Z,10.80
2019-05-06T03:11:46.904Z,10.80
2019-05-06T03:14:14.620Z,10.80
2019-05-06T03:16:43.981Z,10.80
2019-05-06T03:19:13.385Z,10.80
2019-05-06T03:21:47.277Z,10.80
2019-05-06T03:24:16.546Z,10.70
2019-05-06T03:26:44.557Z,10.70
2019-05-06T03:29:13.657Z,10.70
2019-05-06T03:31:46.243Z,10.70
2019-05-06T03:34:35.958Z,10.70
2019-05-06T03:36:47.753Z,10.70
2019-05-06T03:39:09.919Z,10.70
2019-05-06T03:41:37.542Z,10.70
2019-05-06T03:44:05.144Z,10.70
2019-05-06T03:46:53.893Z,10.70
2019-05-06T03:49:23.934Z,10.60
2019-05-06T03:51:55.937Z,10.70
2019-05-06T03:54:23.226Z,10.60
2019-05-06T03:56:53.551Z,10.70
2019-05-06T03:59:19.679Z,10.70
2019-05-06T04:01:47.316Z,10.60
2019-05-06T04:04:14.924Z,10.60
2019-05-06T04:06:43.645Z,10.60
2019-05-06T04:09:13.232Z,10.60
2019-05-06T04:11:43.200Z,10.60
2019-05-06T04:14:13.705Z,10.60
2019-05-06T04:16:52.915Z,10.60
2019-05-06T04:19:27.275Z,10.60
2019-05-06T04:21:56.856Z,10.60
2019-05-06T04:24:26.151Z,10.60
2019-05-06T04:27:04.809Z,10.60
2019-05-06T04:29:35.231Z,10.60
2019-05-06T04:32:03.491Z,10.60
2019-05-06T04:34:33.292Z,10.50
2019-05-06T04:37:03.436Z,10.50
2019-05-06T04:39:32.804Z,10.60
2019-05-06T04:41:59.597Z,10.60
2019-05-06T04:44:27.213Z,10.60
2019-05-06T04:46:54.831Z,10.70
2019-05-06T04:49:23.741Z,10.60
2019-05-06T04:51:54.098Z,10.60
2019-05-06T04:54:26.212Z,10.60
2019-05-06T04:56:53.450Z,10.60
2019-05-06T04:59:19.573Z,10.50
2019-05-06T05:01:47.212Z,10.50
2019-05-06T05:04:28.266Z,10.50
2019-05-06T05:06:44.435Z,10.50
2019-05-06T05:09:16.951Z,10.50
2019-05-06T05:11:43.050Z,10.50
2019-05-06T05:14:13.434Z,10.50
2019-05-06T05:16:45.679Z,10.50
2019-05-06T05:19:15.035Z,10.50
2019-05-06T05:21:42.924Z,10.50
2019-05-06T05:24:11.987Z,10.50
2019-05-06T05:26:40.076Z,10.60
2019-05-06T05:29:07.731Z,10.50
2019-05-06T05:31:35.369Z,10.50
2019-05-06T05:34:02.989Z,10.50
2019-05-06T05:36:32.617Z,10.50
2019-05-06T05:39:00.140Z,10.50
2019-05-06T05:41:28.112Z,10.60
2019-05-06T05:44:02.297Z,10.60
2019-05-06T05:46:29.654Z,10.70
2019-05-06T05:49:07.830Z,10.60
2019-05-06T05:51:35.548Z,10.60
2019-05-06T05:54:03.241Z,10.60
2019-05-06T05:56:32.964Z,10.60
2019-05-06T05:59:03.028Z,10.50
2019-05-06T06:01:32.468Z,10.50
2019-05-06T06:03:59.585Z,10.60
2019-05-06T06:06:27.241Z,10.50
2019-05-06T06:08:54.852Z,10.60
2019-05-06T06:11:26.770Z,10.60
2019-05-06T06:13:56.279Z,10.50
2019-05-06T06:16:42.193Z,10.60
2019-05-06T06:19:12.693Z,10.60
2019-05-06T06:21:42.777Z,10.50
2019-05-06T06:24:29.005Z,10.50
2019-05-06T06:26:56.789Z,10.50
2019-05-06T06:29:24.406Z,10.50
2019-05-06T06:32:10.088Z,10.50
2019-05-06T06:34:48.575Z,10.50
2019-05-06T06:37:26.385Z,10.50
2019-05-06T06:39:54.798Z,10.50
2019-05-06T06:42:22.406Z,10.50
2019-05-06T06:44:52.097Z,10.50
2019-05-06T06:47:19.901Z,10.50
2019-05-06T06:49:47.516Z,10.50
2019-05-06T06:52:15.229Z,10.50
2019-05-06T06:54:43.856Z,10.50
2019-05-06T06:57:25.514Z,10.50
2019-05-06T06:59:54.773Z,10.50
2019-05-06T07:02:24.048Z,10.50
2019-05-06T07:04:53.406Z,10.50
2019-05-06T07:07:22.868Z,10.50
2019-05-06T07:09:52.566Z,10.50
2019-05-06T07:12:20.625Z,10.50
2019-05-06T07:14:52.216Z,10.50
2019-05-06T07:17:19.275Z,10.50
2019-05-06T07:19:54.138Z,10.50
2019-05-06T07:22:23.395Z,10.60
2019-05-06T07:24:52.735Z,10.60
2019-05-06T07:27:22.793Z,10.60
2019-05-06T07:29:52.314Z,10.60
2019-05-06T07:32:20.469Z,10.60
2019-05-06T07:34:48.136Z,10.60
2019-05-06T07:37:15.801Z,10.60
2019-05-06T07:39:43.453Z,10.60
2019-05-06T07:42:13.212Z,10.70
2019-05-06T07:44:42.562Z,10.70
2019-05-06T07:47:17.542Z,10.60
2019-05-06T07:49:45.156Z,10.60
2019-05-06T07:52:13.078Z,10.70
2019-05-06T07:54:42.425Z,10.70
2019-05-06T07:57:12.519Z,10.60
2019-05-06T07:59:39.576Z,10.70
2019-05-06T08:02:07.538Z,10.70
2019-05-06T08:04:35.194Z,10.70
2019-05-06T08:07:03.238Z,10.60
2019-05-06T08:09:32.613Z,10.70
2019-05-06T08:12:02.652Z,10.70
2019-05-06T08:14:43.094Z,10.70
2019-05-06T08:17:13.908Z,10.80
2019-05-06T08:19:42.302Z,10.70
2019-05-06T08:22:12.037Z,10.80
2019-05-06T08:24:39.691Z,10.70
2019-05-06T08:27:07.305Z,10.80
2019-05-06T08:29:34.941Z,10.80
2019-05-06T08:32:03.031Z,10.80
2019-05-06T08:34:30.738Z,10.80
2019-05-06T08:37:03.203Z,10.80
2019-05-06T08:39:32.671Z,10.80
2019-05-06T08:42:02.487Z,10.80
2019-05-06T08:44:29.561Z,10.80
2019-05-06T08:46:57.173Z,10.80
2019-05-06T08:49:24.782Z,10.90
2019-05-06T08:52:06.201Z,10.90
2019-05-06T08:54:35.485Z,10.90
2019-05-06T08:57:03.100Z,10.90
2019-05-06T08:59:32.094Z,10.90
2019-05-06T09:02:03.181Z,10.90
2019-05-06T09:04:32.108Z,11.00
2019-05-06T09:06:59.910Z,10.90
2019-05-06T09:09:27.540Z,10.90
2019-05-06T09:11:55.137Z,11.00
2019-05-06T09:14:23.688Z,11.00
2019-05-06T09:16:53.902Z,11.00
2019-05-06T09:19:23.112Z,11.00
2019-05-06T09:21:50.261Z,11.00
2019-05-06T09:24:17.874Z,11.00
2019-05-06T09:26:52.718Z,11.00
2019-05-06T09:29:24.996Z,11.10
2019-05-06T09:31:54.249Z,11.10
2019-05-06T09:34:32.664Z,11.10
2019-05-06T09:37:14.145Z,11.10
2019-05-06T09:39:43.227Z,11.10
2019-05-06T09:42:12.845Z,11.10
2019-05-06T09:44:42.688Z,11.10
2019-05-06T09:47:12.804Z,11.10
2019-05-06T09:49:42.575Z,11.10
2019-05-06T09:52:12.784Z,11.20
2019-05-06T09:54:47.197Z,11.20
2019-05-06T09:57:32.661Z,11.20
2019-05-06T10:00:04.541Z,11.20
2019-05-06T10:02:32.360Z,11.20
2019-05-06T10:04:59.234Z,11.20
2019-05-06T10:07:26.993Z,11.20
2019-05-06T10:09:54.591Z,11.20
2019-05-06T10:12:22.190Z,11.20
2019-05-06T10:14:49.833Z,11.30
2019-05-06T10:17:17.436Z,11.20
2019-05-06T10:19:45.039Z,11.20
2019-05-06T10:22:12.878Z,11.20
2019-05-06T10:24:43.078Z,11.30
2019-05-06T10:27:12.123Z,11.20
2019-05-06T10:29:43.222Z,11.30
2019-05-06T10:32:22.437Z,11.30
2019-05-06T10:34:52.433Z,11.30
2019-05-06T10:37:25.340Z,11.30
2019-05-06T10:39:58.383Z,11.40
2019-05-06T10:42:27.688Z,11.40
2019-05-06T10:44:56.979Z,11.40
2019-05-06T10:47:24.620Z,11.40
2019-05-06T10:49:53.149Z,11.50
2019-05-06T10:52:25.016Z,11.50
2019-05-06T10:54:53.744Z,11.50
2019-05-06T10:57:26.675Z,11.50
2019-05-06T10:59:54.316Z,11.50
2019-05-06T11:02:32.650Z,11.60
2019-05-06T11:05:02.773Z,11.60
2019-05-06T11:07:32.771Z,11.60
2019-05-06T11:09:59.503Z,11.70
2019-05-06T11:12:27.113Z,11.70
2019-05-06T11:14:55.763Z,11.80
2019-05-06T11:17:23.626Z,11.80
2019-05-06T11:19:53.159Z,11.80
2019-05-06T11:22:23.982Z,11.90
2019-05-06T11:24:49.943Z,11.90
2019-05-06T11:27:28.897Z,11.90
2019-05-06T11:29:49.236Z,11.90
2019-05-06T11:32:21.192Z,12.00
2019-05-06T11:35:05.890Z,12.00
2019-05-06T11:37:47.210Z,12.10
2019-05-06T11:40:07.957Z,12.10
2019-05-06T11:42:36.059Z,12.10
2019-05-06T11:45:05.288Z,12.10
2019-05-06T11:47:32.914Z,12.20
2019-05-06T11:50:02.432Z,12.20
2019-05-06T11:52:29.968Z,12.20
2019-05-06T11:54:57.578Z,12.20
2019-05-06T11:57:25.232Z,12.20
2019-05-06T11:59:53.009Z,12.20
2019-05-06T12:02:22.416Z,12.20
2019-05-06T12:04:52.556Z,12.20
2019-05-06T12:07:19.589Z,12.20
2019-05-06T12:09:47.231Z,12.20
2019-05-06T12:12:14.925Z,12.30
2019-05-06T12:14:43.063Z,12.30
2019-05-06T12:17:12.808Z,12.20
2019-05-06T12:19:40.269Z,12.20
2019-05-06T12:22:07.947Z,12.30
2019-05-06T12:24:35.567Z,12.30
2019-05-06T12:27:03.394Z,12.30
2019-05-06T12:29:32.356Z,12.30
2019-05-06T12:32:04.455Z,12.30
2019-05-06T12:34:32.516Z,12.30
2019-05-06T12:37:02.674Z,12.20
2019-05-06T12:39:33.045Z,12.20
2019-05-06T12:42:04.700Z,12.20
2019-05-06T12:44:33.983Z,12.20
2019-05-06T12:47:19.801Z,12.20
2019-05-06T12:49:47.486Z,12.20
2019-05-06T12:52:15.494Z,12.20
2019-05-06T12:54:43.251Z,12.20
2019-05-06T12:57:12.632Z,12.20
2019-05-06T12:59:42.312Z,12.20
2019-05-06T13:02:09.553Z,12.20
2019-05-06T13:04:51.363Z,12.20
2019-05-06T13:07:08.184Z,12.20
2019-05-06T13:09:35.798Z,12.30
2019-05-06T13:12:04.155Z,12.20
2019-05-06T13:14:33.155Z,12.30
2019-05-06T13:17:02.723Z,12.20
2019-05-06T13:19:32.187Z,12.20
2019-05-06T13:22:03.243Z,12.10
2019-05-06T13:24:29.396Z,12.10
2019-05-06T13:26:58.960Z,12.10
2019-05-06T13:29:28.009Z,12.10
2019-05-06T13:31:55.623Z,12.10
2019-05-06T13:34:23.644Z,12.10
2019-05-06T13:36:53.336Z,12.10
2019-05-06T13:39:23.494Z,12.10
2019-05-06T13:41:50.053Z,12.10
2019-05-06T13:44:17.739Z,12.10
2019-05-06T13:46:47.039Z,12.10
2019-05-06T13:49:25.371Z,12.20
2019-05-06T13:52:03.644Z,12.20
2019-05-06T13:54:30.114Z,12.20
2019-05-06T13:56:57.693Z,12.10
2019-05-06T13:59:29.675Z,12.10
2019-05-06T14:02:08.712Z,12.10
2019-05-06T14:04:36.621Z,12.10
2019-05-06T14:07:07.233Z,12.10
2019-05-06T14:09:39.904Z,12.10
2019-05-06T14:12:02.953Z,12.10
2019-05-06T14:14:32.232Z,12.10
2019-05-06T14:16:59.902Z,12.10
2019-05-06T14:19:27.518Z,12.10
2019-05-06T14:21:55.127Z,12.10
2019-05-06T14:24:22.748Z,12.10
2019-05-06T14:27:02.543Z,12.10
2019-05-06T14:29:34.721Z,12.10
2019-05-06T14:32:02.859Z,12.10
2019-05-06T14:34:32.502Z,12.20
2019-05-06T14:36:59.886Z,12.20
2019-05-06T14:39:47.653Z,12.10
2019-05-06T14:41:58.482Z,12.20
2019-05-06T14:44:26.135Z,12.20
2019-05-06T14:46:58.068Z,12.20
2019-05-06T14:49:25.668Z,12.20
2019-05-06T14:51:53.815Z,12.20
2019-05-06T14:54:22.170Z,12.20
2019-05-06T14:56:53.383Z,12.20
2019-05-06T14:59:23.411Z,12.20
2019-05-06T15:01:53.422Z,12.20
2019-05-06T15:04:20.031Z,12.20
2019-05-06T15:06:47.662Z,12.20
2019-05-06T15:09:15.271Z,12.30
2019-05-06T15:11:43.564Z,12.30
2019-05-06T15:14:13.067Z,12.30
2019-05-06T15:16:42.253Z,12.30
2019-05-06T15:19:10.037Z,12.30
2019-05-06T15:21:55.808Z,12.30
2019-05-06T15:24:24.367Z,12.30
2019-05-06T15:26:52.319Z,12.30
2019-05-06T15:29:19.955Z,12.30
2019-05-06T15:31:49.201Z,12.30
2019-05-06T15:34:35.118Z,12.30
2019-05-06T15:37:12.842Z,12.30
2019-05-06T15:39:39.871Z,12.30
2019-05-06T15:42:07.543Z,12.30
2019-05-06T15:44:35.527Z,12.30
2019-05-06T15:47:03.388Z,12.30
2019-05-06T15:49:32.002Z,12.30
2019-05-06T15:52:00.058Z,12.30
2019-05-06T15:54:27.695Z,12.30
2019-05-06T15:56:55.308Z,12.30
2019-05-06T15:59:23.121Z,12.30
2019-05-06T16:01:53.138Z,12.30
2019-05-06T16:04:20.344Z,12.30
2019-05-06T16:06:47.950Z,12.30
2019-05-06T16:09:15.585Z,12.30
2019-05-06T16:11:44.710Z,12.30
2019-05-06T16:14:12.516Z,12.30
2019-05-06T16:16:40.146Z,12.30
2019-05-06T16:19:07.762Z,12.30
2019-05-06T16:21:35.373Z,12.30
2019-05-06T16:24:14.171Z,12.30
2019-05-06T16:26:42.902Z,12.30
2019-05-06T16:29:13.047Z,12.30
2019-05-06T16:31:42.237Z,12.30
2019-05-06T16:34:12.051Z,12.30
2019-05-06T16:36:39.180Z,12.30
2019-05-06T16:39:07.495Z,12.30
2019-05-06T16:41:35.109Z,12.30
2019-05-06T16:44:02.719Z,12.40
2019-05-06T16:46:33.956Z,12.40
2019-05-06T16:48:59.695Z,12.50
2019-05-06T16:51:27.311Z,12.40
2019-05-06T16:53:55.259Z,12.40
2019-05-06T16:56:24.549Z,12.40
2019-05-06T16:58:53.795Z,12.40
2019-05-06T17:01:22.089Z,12.40
2019-05-06T17:04:08.375Z,12.40
2019-05-06T17:06:43.005Z,12.40
2019-05-06T17:09:18.342Z,12.40
2019-05-06T17:11:40.096Z,12.40
2019-05-06T17:14:07.982Z,12.40
2019-05-06T17:16:35.692Z,12.50
2019-05-06T17:19:03.738Z,12.50
2019-05-06T17:21:33.215Z,12.40
2019-05-06T17:24:02.281Z,12.40
2019-05-06T17:26:30.128Z,12.40
2019-05-06T17:28:59.418Z,12.40
2019-05-06T17:31:42.377Z,12.40
2019-05-06T17:34:12.859Z,12.40
2019-05-06T17:36:42.125Z,12.40
2019-05-06T17:39:11.316Z,12.40
2019-05-06T17:41:45.966Z,12.40
2019-05-06T17:44:11.894Z,12.40
2019-05-06T17:46:55.893Z,12.50
2019-05-06T17:49:28.201Z,12.50
2019-05-06T17:52:02.806Z,12.40
2019-05-06T17:54:43.020Z,12.50
2019-05-06T17:57:06.789Z,12.50
2019-05-06T17:59:37.480Z,12.50
2019-05-06T18:02:09.147Z,12.50
2019-05-06T18:04:36.792Z,12.50
2019-05-06T18:07:04.736Z,12.50
2019-05-06T18:09:33.113Z,12.50
2019-05-06T18:12:03.167Z,12.50
2019-05-06T18:14:32.658Z,12.50
2019-05-06T18:17:00.094Z,12.50
2019-05-06T18:19:27.779Z,12.50
2019-05-06T18:21:56.228Z,12.50
2019-05-06T18:24:23.898Z,12.50
2019-05-06T18:26:52.859Z,12.50
2019-05-06T18:29:22.230Z,12.50
2019-05-06T18:31:52.317Z,12.50
2019-05-06T18:34:19.537Z,12.50
2019-05-06T18:36:47.190Z,12.50
2019-05-06T18:39:14.782Z,12.50
2019-05-06T18:41:42.676Z,12.50
2019-05-06T18:44:11.980Z,12.50
2019-05-06T18:46:41.893Z,12.50
2019-05-06T18:49:09.355Z,12.50
2019-05-06T18:51:37.261Z,12.50
2019-05-06T18:54:04.892Z,12.50
2019-05-06T18:56:32.853Z,12.50
2019-05-06T18:59:02.704Z,12.50
2019-05-06T19:01:29.829Z,12.50
2019-05-06T19:04:13.943Z,12.50
2019-05-06T19:06:42.265Z,12.50
2019-05-06T19:09:14.716Z,12.50
2019-05-06T19:11:42.360Z,12.50
2019-05-06T19:14:10.040Z,12.40
2019-05-06T19:16:48.804Z,12.50
2019-05-06T19:19:07.071Z,12.40
2019-05-06T19:21:34.675Z,12.40
2019-05-06T19:24:02.823Z,12.40
2019-05-06T19:26:32.664Z,12.40
2019-05-06T19:29:00.201Z,12.40
2019-05-06T19:31:27.882Z,12.40
2019-05-06T19:33:55.577Z,12.40
2019-05-06T19:36:23.639Z,12.40
2019-05-06T19:38:51.327Z,12.40
2019-05-06T19:41:19.298Z,12.40
2019-05-06T19:43:46.903Z,12.50
2019-05-06T19:46:14.520Z,12.50
2019-05-06T19:48:43.195Z,12.50
2019-05-06T19:51:10.909Z,12.50
2019-05-06T19:53:38.586Z,12.50
2019-05-06T19:56:06.220Z,12.40
2019-05-06T19:58:34.048Z,12.40
2019-05-06T20:01:02.361Z,12.50
2019-05-06T20:03:32.535Z,12.50
2019-05-06T20:06:02.348Z,12.50
2019-05-06T20:08:32.529Z,12.50
2019-05-06T20:11:08.048Z,12.50
2019-05-06T20:13:35.747Z,12.50
2019-05-06T20:16:03.414Z,12.50
2019-05-06T20:18:32.836Z,12.50
2019-05-06T20:21:00.601Z,12.50
2019-05-06T20:23:28.283Z,12.50
2019-05-06T20:25:55.993Z,12.40
2019-05-06T20:28:23.669Z,12.40
2019-05-06T20:30:52.873Z,12.50
2019-05-06T20:33:21.986Z,12.50
2019-05-06T20:35:49.751Z,12.50
2019-05-06T20:38:17.641Z,12.50
2019-05-06T20:40:45.349Z,12.50
2019-05-06T20:43:20.079Z,12.50
2019-05-06T20:45:42.872Z,12.50
2019-05-06T20:48:12.716Z,12.50
2019-05-06T20:50:39.955Z,12.40
2019-05-06T20:53:07.561Z,12.50
2019-05-06T20:55:35.838Z,12.40
2019-05-06T20:58:03.833Z,12.40
2019-05-06T21:00:33.483Z,12.50
2019-05-06T21:03:00.866Z,12.50
2019-05-06T21:05:28.532Z,12.40
2019-05-06T21:07:56.122Z,12.40
2019-05-06T21:10:23.820Z,12.40
2019-05-06T21:12:53.261Z,12.50
2019-05-06T21:15:23.009Z,12.50
2019-05-06T21:17:50.746Z,12.50
2019-05-06T21:20:24.641Z,12.50
2019-05-06T21:22:52.859Z,12.50
2019-05-06T21:25:22.498Z,12.50
2019-05-06T21:27:49.908Z,12.50
2019-05-06T21:30:17.587Z,12.50
2019-05-06T21:32:45.201Z,12.40
2019-05-06T21:35:12.802Z,12.40
2019-05-06T21:37:42.215Z,12.40
2019-05-06T21:40:12.177Z,12.50
2019-05-06T21:42:39.449Z,12.40
2019-05-06T21:45:07.117Z,12.40
2019-05-06T21:47:35.105Z,12.40
2019-05-06T21:50:03.094Z,12.40
2019-05-06T21:52:37.162Z,12.40
2019-05-06T21:55:02.399Z,12.40
2019-05-06T21:57:29.466Z,12.40
2019-05-06T21:59:57.160Z,12.40
2019-05-06T22:02:24.827Z,12.40
2019-05-06T22:04:55.449Z,12.40
2019-05-06T22:07:22.922Z,12.40
2019-05-06T22:09:52.749Z,12.40
2019-05-06T22:12:24.313Z,12.40
2019-05-06T22:14:49.812Z,12.40
2019-05-06T22:17:17.424Z,12.30
2019-05-06T22:19:45.293Z,12.40
2019-05-06T22:22:14.804Z,12.40
2019-05-06T22:24:46.737Z,12.40
2019-05-06T22:27:14.575Z,12.40
2019-05-06T22:29:42.757Z,12.40
2019-05-06T22:32:11.904Z,12.40
2019-05-06T22:34:39.914Z,12.40
2019-05-06T22:37:07.515Z,12.40
2019-05-06T22:39:35.228Z,12.30
2019-05-06T22:42:03.095Z,12.30
2019-05-06T22:44:32.440Z,12.30
2019-05-06T22:47:02.601Z,12.30
2019-05-06T22:49:29.598Z,12.30
2019-05-06T22:51:57.192Z,12.30
2019-05-06T22:54:24.816Z,12.30
2019-05-06T22:56:54.408Z,12.30
2019-05-06T22:59:24.441Z,12.30
2019-05-06T23:01:54.557Z,12.30
2019-05-06T23:04:24.093Z,12.30
2019-05-06T23:06:51.954Z,12.30
2019-05-06T23:09:19.589Z,12.30
2019-05-06T23:11:47.190Z,12.30
2019-05-06T23:14:28.050Z,12.30
2019-05-06T23:16:44.316Z,12.30
2019-05-06T23:19:11.919Z,12.30
2019-05-06T23:21:39.594Z,12.30
2019-05-06T23:24:07.285Z,12.30
2019-05-06T23:26:34.884Z,12.30
2019-05-06T23:29:02.642Z,12.30
2019-05-06T23:31:30.349Z,12.30
2019-05-06T23:33:57.951Z,12.30
2019-05-06T23:36:28.692Z,12.30
2019-05-06T23:39:13.500Z,12.30
2019-05-06T23:41:59.693Z,12.20
2019-05-06T23:44:46.357Z,12.20
2019-05-06T23:47:32.780Z,12.20
2019-05-06T23:50:18.492Z,12.20
2019-05-06T23:53:04.144Z,12.20
2019-05-06T23:55:51.938Z,12.20
2019-05-06T23:58:19.284Z,12.20
